createdAt,value
2022-12-04T00:03:32.204Z,932.5
2022-12-04T00:08:44.625Z,932.5
2022-12-04T00:30:01.374Z,932.5
2022-12-04T00:35:17.907Z,932.5
2022-12-04T00:40:31.174Z,932.5
2022-12-04T00:45:48.152Z,932.5
2022-12-04T00:51:06.042Z,932.4
2022-12-04T00:56:12.071Z,932.5
2022-12-04T01:01:23.358Z,932.4
2022-12-04T01:22:38.596Z,932.3
2022-12-04T01:27:50.156Z,932.4
2022-12-04T01:38:27.298Z,932.4
2022-12-04T01:49:00.788Z,932.3
2022-12-04T01:59:38.719Z,932.3
2022-12-04T02:04:50.612Z,932.2
2022-12-04T02:10:01.942Z,932.4
2022-12-04T02:15:14.159Z,932.2
2022-12-04T02:31:08.861Z,932
2022-12-04T02:41:41.829Z,932.1
2022-12-04T02:46:54.389Z,932
2022-12-04T02:52:10.280Z,932
2022-12-04T02:57:23.672Z,932
2022-12-04T03:02:40.205Z,932
2022-12-04T03:07:49.699Z,931.9
2022-12-04T03:13:05.719Z,931.9
2022-12-04T03:18:21.635Z,931.9
2022-12-04T03:23:34.008Z,931.6
2022-12-04T03:28:46.447Z,931.5
2022-12-04T03:39:22.906Z,931.5
2022-12-04T03:44:39.214Z,931.5
2022-12-04T03:49:52.383Z,931.6
2022-12-04T03:55:05.805Z,931.6
2022-12-04T04:11:00.729Z,931.7
2022-12-04T04:16:10.841Z,931.8
2022-12-04T04:21:26.505Z,931.8
2022-12-04T04:37:21.131Z,931.8
2022-12-04T04:58:37.545Z,931.9
2022-12-04T05:19:57.930Z,932
2022-12-04T05:35:50.579Z,932
2022-12-04T05:41:03.211Z,932.1
2022-12-04T05:46:18.735Z,932.1
2022-12-04T05:51:34.866Z,932.1
2022-12-04T05:56:46.153Z,931.8
2022-12-04T06:07:18.307Z,932
2022-12-04T06:12:31.583Z,932
2022-12-04T06:17:47.563Z,932
2022-12-04T06:22:59.337Z,931.9
2022-12-04T06:28:15.400Z,931.9
2022-12-04T06:33:31.248Z,931.9
2022-12-04T06:38:43.276Z,931.8
2022-12-04T06:43:53.603Z,931.6
2022-12-04T06:49:10.014Z,931.6
2022-12-04T06:54:24.142Z,931.6
2022-12-04T06:59:39.874Z,931.6
2022-12-04T07:04:51.241Z,931.5
2022-12-04T07:10:03.294Z,931.4
2022-12-04T07:15:18.735Z,931.4
2022-12-04T07:20:31.197Z,931.3
2022-12-04T07:25:39.660Z,931.4
2022-12-04T07:30:53.213Z,931.4
2022-12-04T07:46:52.076Z,931.5
2022-12-04T07:52:04.524Z,931.5
2022-12-04T07:57:16.391Z,931.3
2022-12-04T08:02:27.663Z,931.5
2022-12-04T08:07:39.946Z,931.6
2022-12-04T08:12:51.028Z,931.8
2022-12-04T08:18:02.257Z,932
2022-12-04T08:23:14.878Z,932.2
2022-12-04T08:28:29.852Z,932.2
2022-12-04T08:33:41.723Z,932.4
2022-12-04T08:38:53.101Z,932.2
2022-12-04T08:44:09.390Z,932.2
2022-12-04T09:00:04.553Z,932.2
2022-12-04T09:05:17.649Z,931.9
2022-12-04T09:10:26.119Z,931.8
2022-12-04T09:20:58.612Z,931.9
2022-12-04T09:26:14.327Z,931.9
2022-12-04T09:31:27.492Z,931.7
2022-12-04T09:42:04.237Z,931.7
2022-12-04T09:47:16.501Z,931.9
2022-12-04T09:52:28.700Z,931.7
2022-12-04T09:57:43.250Z,931.7
2022-12-04T10:02:57.660Z,931.9
2022-12-04T10:08:09.791Z,931.7
2022-12-04T10:13:19.689Z,931.4
2022-12-04T10:18:31.444Z,931.1
2022-12-04T10:23:41.946Z,931
2022-12-04T10:28:56.044Z,930.8
2022-12-04T10:34:03.631Z,930.9
2022-12-04T10:39:15.095Z,930.7
2022-12-04T10:44:27.250Z,930.4
2022-12-04T10:49:38.185Z,930
2022-12-04T10:54:49.535Z,929.6
2022-12-04T11:00:01.976Z,929.1
2022-12-04T11:05:12.751Z,929.5
2022-12-04T11:10:23.806Z,929.8
2022-12-04T11:20:57.187Z,930.4
2022-12-04T11:26:10.255Z,930.4
2022-12-04T11:31:20.484Z,930.2
2022-12-04T11:36:31.782Z,929.5
2022-12-04T11:41:43.188Z,929.3
2022-12-04T11:46:55.980Z,929
2022-12-04T11:52:07.505Z,928.7
2022-12-04T11:57:21.054Z,928.7
2022-12-04T12:02:35.833Z,928.7
2022-12-04T12:07:45.829Z,928.1
2022-12-04T12:13:02.514Z,928.1
2022-12-04T12:23:39.921Z,928.1
2022-12-04T12:28:54.298Z,928.1
2022-12-04T12:34:07.288Z,927.7
2022-12-04T12:44:39.880Z,927.6
2022-12-04T12:49:51.850Z,927.3
2022-12-04T13:00:26.685Z,927.6
2022-12-04T13:05:36.575Z,927.8
2022-12-04T13:10:48.523Z,928
2022-12-04T13:15:59.843Z,928.2
2022-12-04T13:31:55.372Z,928.4
2022-12-04T13:37:06.849Z,928.7
2022-12-04T13:42:22.721Z,928.7
2022-12-04T13:52:55.802Z,928.8
2022-12-04T13:58:12.323Z,928.8
2022-12-04T14:03:23.435Z,929.4
2022-12-04T14:08:34.908Z,929.6
2022-12-04T14:13:50.960Z,929.6
2022-12-04T14:19:02.803Z,929.5
2022-12-04T14:24:15.314Z,929.4
2022-12-04T14:29:27.928Z,929.2
2022-12-04T14:40:03.097Z,929.2
2022-12-04T14:50:43.405Z,929.4
2022-12-04T14:56:09.322Z,929.4
2022-12-04T15:01:30.422Z,929.8
2022-12-04T15:06:31.838Z,930
2022-12-04T15:11:48.974Z,930
2022-12-04T15:22:26.111Z,930
2022-12-04T15:27:39.132Z,929.9
2022-12-04T15:32:49.394Z,930.1
2022-12-04T15:38:03.677Z,930.1
2022-12-04T15:43:17.864Z,929.9
2022-12-04T15:48:36.601Z,930.1
2022-12-04T15:53:48.571Z,930.2
2022-12-04T15:59:03.838Z,930.2
2022-12-04T16:04:19.209Z,930.2
2022-12-04T16:09:32.411Z,930.2
2022-12-04T16:20:21.732Z,930.3
2022-12-04T16:25:30.193Z,930.5
2022-12-04T16:30:39.183Z,930.7
2022-12-04T16:35:54.877Z,930.7
2022-12-04T16:41:06.657Z,931
2022-12-04T16:51:40.356Z,931.3
2022-12-04T16:56:53.192Z,931.4
2022-12-04T17:18:21.891Z,931.5
2022-12-04T17:28:45.561Z,931.5
2022-12-04T17:39:20.463Z,931.5
2022-12-04T17:50:01.223Z,931.6
2022-12-04T17:55:18.170Z,931.6
2022-12-04T18:00:33.914Z,931.9
2022-12-04T18:05:39.923Z,931.9
2022-12-04T18:16:16.761Z,932
2022-12-04T18:21:31.598Z,932
2022-12-04T18:26:45.359Z,932.2
2022-12-04T18:37:20.192Z,932
2022-12-04T18:42:36.759Z,932.2
2022-12-04T18:47:47.961Z,932.5
2022-12-04T18:58:26.600Z,932.5
2022-12-04T19:03:36.912Z,932.8
2022-12-04T19:08:49.585Z,933
2022-12-04T19:14:24.107Z,933
2022-12-04T19:19:32.391Z,933
2022-12-04T19:24:42.815Z,933.2
2022-12-04T19:30:12.210Z,933.2
2022-12-04T19:40:57.394Z,933.2
2022-12-04T19:46:37.436Z,933.2
2022-12-04T20:02:46.562Z,933.2
2022-12-04T20:13:31.837Z,933.3
2022-12-04T20:18:57.621Z,933.3
2022-12-04T20:24:10.468Z,933.3
2022-12-04T20:29:22.946Z,933.7
2022-12-04T20:34:46.209Z,933.7
2022-12-04T20:40:08.646Z,933.7
2022-12-04T20:50:46.907Z,933.7
2022-12-04T21:07:09.869Z,933.8
2022-12-04T21:12:52.182Z,933.8
2022-12-04T21:23:18.962Z,933.8
2022-12-04T21:44:34.382Z,933.5
2022-12-04T21:55:11.649Z,933.5
2022-12-04T22:00:24.445Z,933.7
2022-12-04T22:05:42.314Z,933.8
2022-12-04T22:16:12.288Z,933.8
2022-12-04T22:21:22.437Z,934
2022-12-04T22:31:56.484Z,933.7
2022-12-04T22:37:07.654Z,933.9
2022-12-04T22:42:19.547Z,933.9
2022-12-04T22:47:34.923Z,934
2022-12-04T22:52:45.252Z,934.4
2022-12-04T22:58:00.680Z,934.4
2022-12-04T23:03:14.120Z,934.5
2022-12-04T23:08:30.733Z,934.5
2022-12-04T23:13:46.861Z,934.5
2022-12-04T23:18:55.351Z,934.7
2022-12-04T23:24:11.615Z,934.7
2022-12-04T23:29:54.333Z,934.7
2022-12-04T23:34:37.712Z,934.9
2022-12-04T23:39:48.358Z,935
2022-12-04T23:50:19.937Z,935.2
